Time;durP1;ratioP1;P1;durP2;ratioP2;P2;SDS_P1;SDS_P2;PMS_P1;PMS_P2;Temp;Humidity;BMP_temperature;BMP_pressure;BME280_temperature;BME280_humidity;BME280_pressure;Samples;Min_cycle;Max_cycle;Signal;HPM_P1;HPM_P2
2023/07/09 00:01:21;;;;;;;;;;;;;;;27.00;47.41;100681.53;4822766;29;7104;-73
2023/07/09 00:03:51;;;;;;;;;;;;;;;26.91;47.55;100677.28;4835354;29;6769;-73
2023/07/09 00:06:18;;;;;;;;;;;;;;;26.82;47.65;100677.38;4840290;29;6832;-73
2023/07/09 00:08:48;;;;;;;;;;;;;;;26.73;47.76;100679.25;4840255;29;7125;-73
2023/07/09 00:11:15;;;;;;;;;;;;;;;26.64;47.81;100674.13;4857470;29;6984;-73
2023/07/09 00:13:41;;;;;;;;;;;;;;;26.58;48.23;100679.50;4819967;29;8993;-73
2023/07/09 00:16:19;;;;;;;;;;;;;;;26.52;48.40;100682.19;4833946;29;7076;-73
2023/07/09 00:18:45;;;;;;;;;;;;;;;26.50;48.38;100684.00;4849905;29;7015;-73
2023/07/09 00:21:10;;;;;;;;;;;;;;;26.45;48.41;100684.91;4842620;29;7115;-73
2023/07/09 00:23:38;;;;;;;;;;;;;;;26.42;48.46;100678.84;4842713;29;7144;-73
2023/07/09 00:26:13;;;;;;;;;;;;;;;26.38;48.01;100678.03;4820850;29;7371;-73
2023/07/09 00:28:40;;;;;;;;;;;;;;;26.33;48.67;100679.81;4839741;29;6804;-73
2023/07/09 00:31:13;;;;;;;;;;;;;;;26.30;48.50;100680.72;4840089;29;6796;-73
2023/07/09 00:33:39;;;;;;;;;;;;;;;26.29;48.81;100680.78;4832277;29;7021;-72
2023/07/09 00:36:23;;;;;;;;;;;;;;;26.28;48.88;100687.75;4839310;29;7170;-73
2023/07/09 00:38:51;;;;;;;;;;;;;;;26.27;48.94;100679.91;4843732;29;7199;-72
2023/07/09 00:41:22;;;;;;;;;;;;;;;26.27;48.80;100680.78;4862722;29;7020;-72
2023/07/09 00:43:51;;;;;;;;;;;;;;;26.27;49.07;100682.53;4842970;29;6812;-72
2023/07/09 00:46:19;;;;;;;;;;;;;;;26.24;48.90;100690.44;4842708;29;6808;-72
2023/07/09 00:49:08;;;;;;;;;;;;;;;26.19;48.99;100690.47;4842842;29;6830;-72
2023/07/09 00:51:41;;;;;;;;;;;;;;;26.14;49.44;100690.53;4863102;29;6797;-73
2023/07/09 00:54:30;;;;;;;;;;;;;;;26.10;49.42;100694.09;4839365;29;6992;-72
2023/07/09 00:57:05;;;;;;;;;;;;;;;26.04;49.19;100689.78;4844656;29;6805;-72
2023/07/09 00:59:33;;;;;;;;;;;;;;;26.00;49.73;100688.06;4845220;29;6895;-72
2023/07/09 01:02:00;;;;;;;;;;;;;;;25.95;50.09;100689.00;4861085;29;6962;-72
2023/07/09 01:04:27;;;;;;;;;;;;;;;25.90;50.08;100692.56;4857552;29;7294;-72
2023/07/09 01:06:56;;;;;;;;;;;;;;;25.85;50.25;100691.75;4858305;29;6868;-72
2023/07/09 01:09:24;;;;;;;;;;;;;;;25.78;50.09;100693.56;4841481;29;6969;-72
2023/07/09 01:11:50;;;;;;;;;;;;;;;25.74;49.92;100691.00;4842716;29;6852;-72
2023/07/09 01:14:21;;;;;;;;;;;;;;;25.70;50.42;100702.41;4839778;29;6784;-72
2023/07/09 01:16:57;;;;;;;;;;;;;;;25.63;50.28;100702.47;4842590;29;6812;-72
2023/07/09 01:19:25;;;;;;;;;;;;;;;25.59;50.59;100702.50;4842499;29;6812;-72
2023/07/09 01:21:58;;;;;;;;;;;;;;;25.54;50.11;100705.19;4842249;29;7191;-72
2023/07/09 01:25:01;;;;;;;;;;;;;;;25.48;50.83;100702.56;4844086;29;6805;-72
2023/07/09 01:27:41;;;;;;;;;;;;;;;25.41;50.80;100699.13;4844411;29;6816;-72
2023/07/09 01:30:22;;;;;;;;;;;;;;;25.40;50.91;100702.66;4845999;29;6804;-72
2023/07/09 01:32:50;;;;;;;;;;;;;;;25.40;50.76;100697.41;4842470;29;11706;-72
2023/07/09 01:35:19;;;;;;;;;;;;;;;25.42;51.38;100705.28;4846736;29;6801;-72
2023/07/09 01:37:46;;;;;;;;;;;;;;;25.40;50.79;100700.03;4842551;29;6924;-72
2023/07/09 01:40:17;;;;;;;;;;;;;;;25.41;51.33;100708.78;4830430;29;7196;-73
2023/07/09 01:42:43;;;;;;;;;;;;;;;25.42;50.99;100702.66;4865434;29;6865;-73
2023/07/09 01:45:10;;;;;;;;;;;;;;;25.40;50.80;100707.91;4877463;29;6844;-72
2023/07/09 01:47:37;;;;;;;;;;;;;;;25.38;50.71;100705.28;4859592;29;7083;-73
2023/07/09 01:50:05;;;;;;;;;;;;;;;25.35;51.21;100707.94;4846403;29;6956;-72
2023/07/09 01:52:33;;;;;;;;;;;;;;;25.31;51.27;100706.25;4860358;29;6921;-72
2023/07/09 01:54:59;;;;;;;;;;;;;;;25.28;51.37;100703.63;4859153;29;6824;-72
2023/07/09 01:57:34;;;;;;;;;;;;;;;25.25;51.25;100706.28;4856931;29;6788;-73
2023/07/09 02:00:10;;;;;;;;;;;;;;;25.21;51.20;100704.56;4855775;29;6824;-73
2023/07/09 02:02:38;;;;;;;;;;;;;;;25.17;51.35;100694.97;4852643;29;11961;-73
2023/07/09 02:05:05;;;;;;;;;;;;;;;25.14;51.59;100700.25;4828137;29;7023;-73
2023/07/09 02:07:31;;;;;;;;;;;;;;;25.09;51.71;100698.53;4865379;29;6927;-73
2023/07/09 02:09:58;;;;;;;;;;;;;;;25.08;51.78;100706.41;4857025;29;6832;-72
2023/07/09 02:12:24;;;;;;;;;;;;;;;25.06;51.72;100703.78;4829988;29;6815;-75
2023/07/09 02:14:50;;;;;;;;;;;;;;;25.05;51.70;100707.31;4842920;29;6980;-73
2023/07/09 02:17:16;;;;;;;;;;;;;;;25.04;51.70;100702.94;4859906;29;7258;-73
2023/07/09 02:19:43;;;;;;;;;;;;;;;25.05;51.78;100701.19;4861170;29;7064;-73
2023/07/09 02:22:10;;;;;;;;;;;;;;;25.05;51.48;100707.31;4844538;29;6800;-73
2023/07/09 02:24:35;;;;;;;;;;;;;;;25.04;51.70;100705.56;4844773;29;6833;-74
2023/07/09 02:27:05;;;;;;;;;;;;;;;25.04;51.88;100705.56;4863327;29;6853;-73
2023/07/09 02:29:32;;;;;;;;;;;;;;;25.06;51.50;100705.53;4863812;29;6864;-73
2023/07/09 02:32:00;;;;;;;;;;;;;;;25.06;51.83;100703.78;4859417;29;6878;-73
2023/07/09 02:34:28;;;;;;;;;;;;;;;25.07;51.91;100708.16;4845440;29;6873;-73
2023/07/09 02:36:56;;;;;;;;;;;;;;;25.03;51.46;100709.06;4859009;29;6998;-73
2023/07/09 02:39:23;;;;;;;;;;;;;;;24.98;52.12;100705.59;4859539;29;8964;-73
2023/07/09 02:41:49;;;;;;;;;;;;;;;24.95;51.86;100703.88;4843779;29;6978;-73
2023/07/09 02:44:17;;;;;;;;;;;;;;;24.94;51.71;100707.38;4863939;29;6987;-73
2023/07/09 02:46:42;;;;;;;;;;;;;;;24.95;52.36;100705.63;4864978;29;6852;-73
2023/07/09 02:49:12;;;;;;;;;;;;;;;24.95;51.78;100703.00;4840104;29;6864;-73
2023/07/09 02:51:38;;;;;;;;;;;;;;;24.95;52.37;100705.63;4861220;29;7064;-73
2023/07/09 02:54:05;;;;;;;;;;;;;;;24.94;51.92;100717.00;4857411;29;6808;-73
2023/07/09 02:56:31;;;;;;;;;;;;;;;24.93;52.11;100716.13;4841819;29;6788;-73
2023/07/09 02:58:57;;;;;;;;;;;;;;;24.91;51.86;100709.13;4844461;29;6864;-73
2023/07/09 03:01:24;;;;;;;;;;;;;;;24.89;52.21;100713.53;4843698;29;7244;-74
2023/07/09 03:03:52;;;;;;;;;;;;;;;24.90;52.42;100720.50;4829396;29;6989;-73
2023/07/09 03:06:20;;;;;;;;;;;;;;;24.87;52.01;100710.94;4860080;29;6793;-73
2023/07/09 03:08:46;;;;;;;;;;;;;;;24.86;52.33;100710.94;4839603;29;6797;-73
2023/07/09 03:11:14;;;;;;;;;;;;;;;24.87;52.41;100718.81;4843547;29;6845;-73
2023/07/09 03:13:40;;;;;;;;;;;;;;;24.89;52.11;100718.75;4845386;29;7137;-73
2023/07/09 03:16:06;;;;;;;;;;;;;;;24.88;52.68;100715.28;4841880;29;7255;-73
2023/07/09 03:18:32;;;;;;;;;;;;;;;24.90;52.32;100715.25;4844506;29;7295;-73
2023/07/09 03:20:58;;;;;;;;;;;;;;;24.89;52.28;100710.91;4841193;29;7314;-73
2023/07/09 03:23:24;;;;;;;;;;;;;;;24.89;51.97;100714.41;4860341;29;6987;-73
2023/07/09 03:25:50;;;;;;;;;;;;;;;24.87;52.13;100710.06;4857054;29;6998;-73
2023/07/09 03:28:16;;;;;;;;;;;;;;;24.85;52.36;100709.19;4843244;29;6797;-73
2023/07/09 03:30:44;;;;;;;;;;;;;;;24.82;52.50;100707.47;4844264;29;6835;-72
2023/07/09 03:33:11;;;;;;;;;;;;;;;24.80;51.92;100712.69;4841303;29;8205;-73
2023/07/09 03:35:38;;;;;;;;;;;;;;;24.77;52.43;100712.69;4823175;29;6989;-71
2023/07/09 03:38:05;;;;;;;;;;;;;;;24.75;52.22;100719.69;4839414;29;6887;-70
2023/07/09 03:40:31;;;;;;;;;;;;;;;24.73;52.30;100721.47;4841877;29;6792;-70
2023/07/09 03:42:57;;;;;;;;;;;;;;;24.68;52.71;100726.75;4843012;29;7193;-71
2023/07/09 03:45:23;;;;;;;;;;;;;;;24.65;52.76;100715.41;4839061;29;8759;-71
2023/07/09 03:47:48;;;;;;;;;;;;;;;24.66;53.04;100725.00;4858310;29;6953;-69
2023/07/09 03:50:14;;;;;;;;;;;;;;;24.66;52.30;100727.63;4838884;29;6780;-71
2023/07/09 03:52:40;;;;;;;;;;;;;;;24.65;52.77;100733.75;4841170;29;6788;-70
2023/07/09 03:55:06;;;;;;;;;;;;;;;24.66;52.91;100730.25;4842410;29;7193;-70
2023/07/09 03:57:33;;;;;;;;;;;;;;;24.67;52.85;100730.25;4843865;29;6929;-69
2023/07/09 03:59:59;;;;;;;;;;;;;;;24.69;52.53;100730.22;4840907;29;6867;-72
2023/07/09 04:02:25;;;;;;;;;;;;;;;24.70;52.98;100737.19;4837839;29;6945;-71
2023/07/09 04:04:51;;;;;;;;;;;;;;;24.72;52.89;100730.19;4855196;29;6804;-71
2023/07/09 04:07:18;;;;;;;;;;;;;;;24.75;53.05;100737.16;4843201;29;6777;-70
2023/07/09 04:09:43;;;;;;;;;;;;;;;24.75;52.73;100730.19;4835908;29;7004;-72
2023/07/09 04:12:10;;;;;;;;;;;;;;;24.78;53.34;100738.06;4862936;29;6796;-70
2023/07/09 04:14:36;;;;;;;;;;;;;;;24.81;53.13;100726.69;4844400;29;6949;-71
2023/07/09 04:17:03;;;;;;;;;;;;;;;24.85;53.48;100730.16;4845403;29;6849;-70
2023/07/09 04:19:28;;;;;;;;;;;;;;;24.87;53.34;100729.28;4840624;29;7215;-70
2023/07/09 04:21:54;;;;;;;;;;;;;;;24.90;53.25;100729.25;4858932;29;6849;-70
2023/07/09 04:24:20;;;;;;;;;;;;;;;24.96;53.13;100738.81;4856389;29;6785;-71
2023/07/09 04:26:47;;;;;;;;;;;;;;;25.02;53.06;100730.94;4854533;29;6879;-71
2023/07/09 04:29:13;;;;;;;;;;;;;;;25.12;53.07;100733.50;4842521;29;7006;-70
2023/07/09 04:31:41;;;;;;;;;;;;;;;25.21;53.03;100728.19;4836947;29;7106;-71
2023/07/09 04:34:07;;;;;;;;;;;;;;;25.31;53.14;100719.34;4817666;29;6972;-71
2023/07/09 04:36:33;;;;;;;;;;;;;;;25.44;52.44;100721.88;4861989;29;6937;-70
2023/07/09 04:38:59;;;;;;;;;;;;;;;25.55;52.54;100717.41;4857366;29;6777;-71
2023/07/09 04:41:25;;;;;;;;;;;;;;;25.68;52.89;100719.91;4841029;29;6773;-70
2023/07/09 04:43:51;;;;;;;;;;;;;;;25.81;52.47;100708.41;4844276;29;6811;-72
2023/07/09 04:46:16;;;;;;;;;;;;;;;25.97;52.53;100718.75;4835036;29;7077;-70
2023/07/09 04:48:42;;;;;;;;;;;;;;;26.11;52.48;100716.84;4841791;29;6780;-72
2023/07/09 04:51:08;;;;;;;;;;;;;;;26.28;52.39;100718.44;4838266;29;7100;-71
2023/07/09 04:53:34;;;;;;;;;;;;;;;26.42;52.06;100713.00;4838756;29;6963;-71
2023/07/09 04:56:00;;;;;;;;;;;;;;;26.59;51.93;100718.03;4830368;29;8980;-71
2023/07/09 04:58:26;;;;;;;;;;;;;;;26.74;51.79;100720.41;4840584;29;6904;-69
2023/07/09 05:00:52;;;;;;;;;;;;;;;26.92;51.64;100721.09;4839816;29;8614;-71
2023/07/09 05:03:18;;;;;;;;;;;;;;;27.11;51.64;100715.53;4843954;29;6952;-71
2023/07/09 05:05:46;;;;;;;;;;;;;;;27.31;51.34;100708.19;4856605;29;7007;-70
2023/07/09 05:08:13;;;;;;;;;;;;;;;27.52;51.05;100711.31;4849359;29;6868;-71
2023/07/09 05:10:50;;;;;;;;;;;;;;;27.76;50.89;100709.19;4843690;29;6872;-70
2023/07/09 05:13:16;;;;;;;;;;;;;;;28.00;50.81;100714.88;4840986;29;7215;-71
2023/07/09 05:15:46;;;;;;;;;;;;;;;28.22;49.89;100707.44;4857538;29;7088;-71
2023/07/09 05:18:14;;;;;;;;;;;;;;;28.45;49.50;100703.47;4845369;29;6816;-71
2023/07/09 05:20:41;;;;;;;;;;;;;;;28.72;49.47;100713.41;4825943;29;6980;-72
2023/07/09 05:23:09;;;;;;;;;;;;;;;28.96;48.76;100704.94;4842464;29;6805;-71
2023/07/09 05:25:35;;;;;;;;;;;;;;;29.20;49.04;100707.00;4843242;29;7218;-70
2023/07/09 05:28:02;;;;;;;;;;;;;;;29.43;47.97;100698.50;4862570;29;6784;-71
2023/07/09 05:30:27;;;;;;;;;;;;;;;29.68;48.15;100692.63;4844251;29;7202;-71
2023/07/09 05:32:55;;;;;;;;;;;;;;;29.96;47.93;100693.59;4846557;29;6772;-72
2023/07/09 05:35:21;;;;;;;;;;;;;;;30.21;46.96;100691.13;4824700;29;6984;-71
2023/07/09 05:37:47;;;;;;;;;;;;;;;30.47;46.31;100695.66;4842360;29;7013;-72
2023/07/09 05:40:13;;;;;;;;;;;;;;;30.72;46.57;100697.56;4842479;29;6966;-72
2023/07/09 05:42:38;;;;;;;;;;;;;;;30.99;46.09;100694.06;4840332;29;7022;-73
2023/07/09 05:45:05;;;;;;;;;;;;;;;31.24;45.54;100695.94;4840899;29;6849;-74
2023/07/09 05:47:30;;;;;;;;;;;;;;;31.49;44.72;100692.44;4858978;29;7032;-73
2023/07/09 05:49:56;;;;;;;;;;;;;;;31.70;43.85;100694.31;4843622;29;6796;-73
2023/07/09 05:52:24;;;;;;;;;;;;;;;31.92;43.47;100688.25;4842370;29;7479;-73
2023/07/09 05:54:51;;;;;;;;;;;;;;;32.13;43.57;100699.84;4840940;29;6854;-73
2023/07/09 05:57:18;;;;;;;;;;;;;;;32.32;43.07;100692.97;4849988;29;7026;-73
2023/07/09 05:59:43;;;;;;;;;;;;;;;32.49;42.39;100695.84;4855436;29;7052;-73
2023/07/09 06:02:14;;;;;;;;;;;;;;;32.61;41.72;100694.50;4826803;29;7262;-73
2023/07/09 06:04:41;;;;;;;;;;;;;;;32.62;41.23;100701.53;4841477;29;7159;-73
2023/07/09 06:07:08;;;;;;;;;;;;;;;32.58;40.94;100699.06;4845642;29;6801;-73
2023/07/09 06:09:35;;;;;;;;;;;;;;;32.48;40.81;100698.56;4843598;29;6785;-73
2023/07/09 06:12:01;;;;;;;;;;;;;;;32.35;40.78;100704.31;4861860;29;7182;-73
2023/07/09 06:14:26;;;;;;;;;;;;;;;32.24;40.85;100706.53;4844758;29;6934;-73
2023/07/09 06:16:52;;;;;;;;;;;;;;;32.13;40.56;100694.53;4839682;29;7271;-73
2023/07/09 06:19:18;;;;;;;;;;;;;;;32.04;40.49;100700.19;4838154;29;7075;-73
2023/07/09 06:21:43;;;;;;;;;;;;;;;31.96;41.00;100697.81;4846995;29;7010;-74
2023/07/09 06:24:09;;;;;;;;;;;;;;;31.92;41.21;100705.91;4834997;29;6891;-73
2023/07/09 06:26:36;;;;;;;;;;;;;;;31.89;41.12;100698.09;4856330;29;7354;-74
2023/07/09 06:29:02;;;;;;;;;;;;;;;31.86;41.13;100710.53;4823936;29;7003;-73
2023/07/09 06:31:28;;;;;;;;;;;;;;;31.85;41.85;100715.88;4838531;29;6792;-73
2023/07/09 06:33:53;;;;;;;;;;;;;;;31.85;42.33;100707.94;4836289;29;7033;-73
2023/07/09 06:36:19;;;;;;;;;;;;;;;31.84;42.20;100704.44;4860100;29;6926;-73
2023/07/09 06:38:45;;;;;;;;;;;;;;;31.85;42.32;100702.63;4847107;29;7615;-73
2023/07/09 06:41:14;;;;;;;;;;;;;;;31.86;42.37;100707.91;4840747;29;6781;-73
2023/07/09 06:43:40;;;;;;;;;;;;;;;31.88;42.97;100710.50;4841639;29;6929;-72
2023/07/09 06:46:11;;;;;;;;;;;;;;;31.89;42.82;100711.34;4822164;29;7013;-73
2023/07/09 06:48:37;;;;;;;;;;;;;;;31.91;42.68;100704.19;4853958;29;7185;-73
2023/07/09 06:51:03;;;;;;;;;;;;;;;31.95;42.77;100701.38;4821599;29;7003;-72
2023/07/09 06:53:29;;;;;;;;;;;;;;;31.98;42.86;100703.94;4856738;29;7068;-73
2023/07/09 06:55:58;;;;;;;;;;;;;;;32.02;42.87;100706.47;4837761;29;6797;-72
2023/07/09 06:58:31;;;;;;;;;;;;;;;32.09;43.07;100708.81;4852851;29;7177;-72
2023/07/09 07:00:57;;;;;;;;;;;;;;;32.19;43.02;100714.66;4830973;29;7096;-73
2023/07/09 07:03:24;;;;;;;;;;;;;;;32.35;42.98;100714.91;4839217;29;7284;-72
2023/07/09 07:05:57;;;;;;;;;;;;;;;32.55;42.68;100710.66;4839378;29;6808;-72
2023/07/09 07:08:25;;;;;;;;;;;;;;;32.82;42.49;100716.63;4836648;29;6828;-73
2023/07/09 07:11:02;;;;;;;;;;;;;;;33.14;42.38;100715.44;4843411;29;7262;-73
2023/07/09 07:13:33;;;;;;;;;;;;;;;33.49;42.30;100708.63;4841645;29;6973;-73
2023/07/09 07:15:59;;;;;;;;;;;;;;;33.86;41.57;100711.44;4843523;29;6809;-73
2023/07/09 07:18:25;;;;;;;;;;;;;;;34.23;40.74;100703.56;4844256;29;7181;-73
2023/07/09 07:20:51;;;;;;;;;;;;;;;34.61;40.81;100697.41;4845878;29;7159;-72
2023/07/09 07:23:17;;;;;;;;;;;;;;;34.95;39.42;100705.53;4841271;29;7249;-72
2023/07/09 07:25:44;;;;;;;;;;;;;;;35.28;39.59;100707.44;4842011;29;7140;-73
2023/07/09 07:28:09;;;;;;;;;;;;;;;35.57;39.19;100707.75;4839231;29;7188;-73
2023/07/09 07:30:35;;;;;;;;;;;;;;;35.83;38.13;100708.16;4842847;29;7449;-73
2023/07/09 07:33:01;;;;;;;;;;;;;;;36.09;37.98;100712.09;4842984;29;6769;-73
2023/07/09 07:35:26;;;;;;;;;;;;;;;36.33;37.81;100710.84;4822493;29;7210;-73
2023/07/09 07:37:53;;;;;;;;;;;;;;;36.58;37.48;100705.00;4829007;29;6943;-73
2023/07/09 07:40:19;;;;;;;;;;;;;;;36.82;36.73;100705.38;4854041;29;7051;-72
2023/07/09 07:42:45;;;;;;;;;;;;;;;37.07;36.65;100703.97;4858166;29;6781;-73
2023/07/09 07:45:11;;;;;;;;;;;;;;;37.29;35.93;100694.66;4860112;29;6784;-72
2023/07/09 07:47:37;;;;;;;;;;;;;;;37.50;35.34;100691.63;4844344;29;7441;-72
2023/07/09 07:50:03;;;;;;;;;;;;;;;37.69;35.01;100688.72;4859522;29;7010;-72
2023/07/09 07:52:30;;;;;;;;;;;;;;;37.87;34.96;100699.22;4843578;29;6796;-72
2023/07/09 07:54:55;;;;;;;;;;;;;;;38.05;34.95;100699.91;4843882;29;6941;-72
2023/07/09 07:57:24;;;;;;;;;;;;;;;38.27;34.53;100699.38;4843160;29;6788;-72
2023/07/09 07:59:50;;;;;;;;;;;;;;;38.51;34.20;100701.44;4844286;29;7029;-73
2023/07/09 08:02:15;;;;;;;;;;;;;;;38.72;33.76;100700.97;4850391;29;7222;-72
2023/07/09 08:04:41;;;;;;;;;;;;;;;38.89;33.19;100697.19;4839601;29;6814;-72
2023/07/09 08:07:08;;;;;;;;;;;;;;;38.99;32.84;100684.91;4857296;29;6796;-72
2023/07/09 08:09:34;;;;;;;;;;;;;;;39.15;32.81;100692.75;4860166;29;6785;-72
2023/07/09 08:12:08;;;;;;;;;;;;;;;39.40;32.74;100691.03;4837747;29;7196;-72
2023/07/09 08:14:35;;;;;;;;;;;;;;;39.67;32.25;100698.13;4841531;29;6982;-73
2023/07/09 08:17:00;;;;;;;;;;;;;;;39.87;31.93;100689.66;4839988;29;7164;-72
2023/07/09 08:19:27;;;;;;;;;;;;;;;40.05;31.71;100687.47;4837657;29;6840;-70
2023/07/09 08:21:53;;;;;;;;;;;;;;;40.24;31.11;100695.88;4840560;29;6781;-70
2023/07/09 08:24:18;;;;;;;;;;;;;;;40.41;30.94;100688.44;4838340;29;7301;-70
2023/07/09 08:26:44;;;;;;;;;;;;;;;40.66;30.49;100694.63;4857468;29;6768;-70
2023/07/09 08:29:10;;;;;;;;;;;;;;;40.97;29.92;100692.34;4842149;29;6836;-72
2023/07/09 08:31:35;;;;;;;;;;;;;;;41.28;29.21;100689.13;4854488;29;7264;-73
2023/07/09 08:34:06;;;;;;;;;;;;;;;41.59;28.73;100686.72;4857719;29;6773;-70
2023/07/09 08:36:31;;;;;;;;;;;;;;;41.90;28.38;100685.13;4853422;29;7044;-70
2023/07/09 08:38:57;;;;;;;;;;;;;;;42.18;27.63;100682.91;4842321;29;6788;-70
2023/07/09 08:41:40;;;;;;;;;;;;;;;42.41;27.00;100680.16;4855315;29;7112;-70
2023/07/09 08:44:31;;;;;;;;;;;;;;;42.70;27.16;100682.25;4841956;29;7115;-71
2023/07/09 08:47:22;;;;;;;;;;;;;;;42.98;26.41;100682.63;4856903;29;6820;-71
2023/07/09 08:49:59;;;;;;;;;;;;;;;43.30;26.21;100684.38;4852421;29;7103;-71
2023/07/09 08:52:35;;;;;;;;;;;;;;;43.63;26.36;100673.47;4857213;29;6987;-71
2023/07/09 08:55:23;;;;;;;;;;;;;;;43.96;25.41;100667.91;4852832;29;7394;-72
2023/07/09 08:57:57;;;;;;;;;;;;;;;44.26;24.91;100666.13;4848987;29;7019;-72
2023/07/09 09:00:41;;;;;;;;;;;;;;;44.59;24.51;100658.59;4840953;29;6828;-72
2023/07/09 09:03:23;;;;;;;;;;;;;;;44.89;23.60;100663.97;4838165;29;6940;-71
2023/07/09 09:05:49;;;;;;;;;;;;;;;45.11;23.74;100660.13;4841757;29;7068;-71
2023/07/09 09:08:44;;;;;;;;;;;;;;;45.32;23.13;100669.84;4838849;29;6997;-72
2023/07/09 09:11:31;;;;;;;;;;;;;;;45.45;23.12;100648.75;4842298;29;6805;-71
2023/07/09 09:14:05;;;;;;;;;;;;;;;45.67;23.18;100651.22;4842401;29;7000;-71
2023/07/09 09:16:39;;;;;;;;;;;;;;;45.93;22.98;100651.34;4842026;29;7966;-71
2023/07/09 09:19:26;;;;;;;;;;;;;;;46.16;22.68;100646.38;4854983;29;6887;-72
2023/07/09 09:22:03;;;;;;;;;;;;;;;46.30;22.42;100644.97;4858382;29;6812;-71
2023/07/09 09:24:45;;;;;;;;;;;;;;;46.45;22.11;100642.56;4823741;29;7080;-71
2023/07/09 09:27:11;;;;;;;;;;;;;;;46.72;22.26;100646.19;4835905;29;6804;-71
2023/07/09 09:29:37;;;;;;;;;;;;;;;47.05;21.60;100644.69;4838664;29;6784;-71
2023/07/09 09:32:35;;;;;;;;;;;;;;;47.36;20.86;100636.91;4840935;29;7193;-72
2023/07/09 09:35:17;;;;;;;;;;;;;;;47.62;19.99;100633.28;4854882;29;6883;-71
2023/07/09 09:37:52;;;;;;;;;;;;;;;47.79;19.53;100622.47;4857264;29;6821;-71
2023/07/09 09:40:23;;;;;;;;;;;;;;;47.93;18.85;100624.56;4839171;29;7302;-71
2023/07/09 09:42:53;;;;;;;;;;;;;;;47.99;18.67;100616.72;4838476;29;6820;-71
2023/07/09 09:45:33;;;;;;;;;;;;;;;48.03;18.70;100618.09;4842483;29;8311;-72
2023/07/09 09:48:10;;;;;;;;;;;;;;;48.13;18.55;100621.53;4841268;29;7920;-71
2023/07/09 09:50:35;;;;;;;;;;;;;;;48.26;18.16;100620.19;4861486;29;8280;-72
2023/07/09 09:53:01;;;;;;;;;;;;;;;48.38;18.15;100626.94;4840111;29;7846;-72
2023/07/09 09:55:32;;;;;;;;;;;;;;;48.52;17.90;100622.72;4862828;29;7003;-72
2023/07/09 09:57:58;;;;;;;;;;;;;;;48.65;18.00;100616.75;4842602;29;6793;-72
2023/07/09 10:00:28;;;;;;;;;;;;;;;48.81;18.00;100613.16;4839138;29;6797;-72
2023/07/09 10:03:06;;;;;;;;;;;;;;;48.97;17.74;100623.19;4841821;29;7160;-72
2023/07/09 10:05:58;;;;;;;;;;;;;;;49.12;17.75;100630.59;4840528;29;7156;-72
2023/07/09 10:08:58;;;;;;;;;;;;;;;49.28;17.69;100637.88;4843232;29;7017;-72
2023/07/09 10:11:45;;;;;;;;;;;;;;;49.44;16.89;100635.09;4843336;29;7148;-72
2023/07/09 10:14:23;;;;;;;;;;;;;;;49.56;16.67;100634.69;4845549;29;6980;-71
2023/07/09 10:16:59;;;;;;;;;;;;;;;49.72;16.57;100640.06;4844788;29;6980;-72
2023/07/09 10:19:31;;;;;;;;;;;;;;;49.88;16.36;100641.81;4844957;29;7125;-69
2023/07/09 10:22:02;;;;;;;;;;;;;;;49.85;15.69;100634.03;4842919;29;6788;-69
2023/07/09 10:24:37;;;;;;;;;;;;;;;49.71;15.86;100641.09;4863996;29;6785;-69
2023/07/09 10:27:13;;;;;;;;;;;;;;;49.45;15.10;100646.81;4862608;29;6780;-69
2023/07/09 10:29:56;;;;;;;;;;;;;;;49.13;15.50;100643.19;4841752;29;6788;-69
2023/07/09 10:32:49;;;;;;;;;;;;;;;49.08;15.56;100632.00;4841113;29;6822;-69
2023/07/09 10:35:44;;;;;;;;;;;;;;;49.14;15.29;100634.84;4840452;29;6864;-69
2023/07/09 10:38:43;;;;;;;;;;;;;;;49.14;15.50;100626.69;4842375;29;7325;-69
2023/07/09 10:41:11;;;;;;;;;;;;;;;49.11;15.10;100615.31;4857518;29;6929;-69
2023/07/09 10:43:49;;;;;;;;;;;;;;;49.12;14.98;100617.00;4846797;29;7390;-69
2023/07/09 10:46:21;;;;;;;;;;;;;;;49.17;15.12;100618.16;4843993;29;6793;-69
2023/07/09 10:48:50;;;;;;;;;;;;;;;49.16;15.43;100605.59;4859582;29;6837;-69
2023/07/09 10:51:38;;;;;;;;;;;;;;;49.18;15.30;100608.97;4837004;29;6840;-69
2023/07/09 10:54:23;;;;;;;;;;;;;;;48.99;15.05;100606.69;4836592;29;6792;-69
2023/07/09 10:56:58;;;;;;;;;;;;;;;48.73;15.32;100605.88;4838275;29;6861;-69
2023/07/09 10:59:37;;;;;;;;;;;;;;;48.57;15.30;100606.75;4824307;29;7170;-69
2023/07/09 11:02:26;;;;;;;;;;;;;;;48.40;15.30;100600.47;4861212;29;6788;-69
2023/07/09 11:04:58;;;;;;;;;;;;;;;48.23;15.51;100599.63;4823785;29;10150;-69
2023/07/09 11:08:01;;;;;;;;;;;;;;;48.06;15.76;100598.75;4857583;29;6858;-67
2023/07/09 11:10:32;;;;;;;;;;;;;;;47.93;16.02;100589.25;4843100;29;6777;-68
2023/07/09 11:13:04;;;;;;;;;;;;;;;47.92;16.13;100595.69;4845521;29;7196;-68
2023/07/09 11:15:35;;;;;;;;;;;;;;;47.90;16.40;100589.56;4840385;29;6820;-68
2023/07/09 11:18:05;;;;;;;;;;;;;;;47.86;16.17;100590.94;4862233;29;6793;-68
2023/07/09 11:20:41;;;;;;;;;;;;;;;47.78;16.52;100596.34;4836566;29;6850;-68
2023/07/09 11:23:17;;;;;;;;;;;;;;;47.71;16.22;100590.75;4840725;29;7262;-68
2023/07/09 11:25:47;;;;;;;;;;;;;;;47.57;16.39;100589.50;4822284;29;6997;-69
2023/07/09 11:28:13;;;;;;;;;;;;;;;47.30;16.15;100588.69;4836057;29;6765;-69
2023/07/09 11:30:50;;;;;;;;;;;;;;;47.07;16.89;100596.56;4861002;29;7092;-69
2023/07/09 11:33:25;;;;;;;;;;;;;;;47.08;16.68;100595.56;4861973;29;6940;-68
2023/07/09 11:36:12;;;;;;;;;;;;;;;47.26;16.89;100598.19;4859766;29;7439;-68
2023/07/09 11:38:41;;;;;;;;;;;;;;;47.54;16.98;100601.53;4840548;29;7216;-69
2023/07/09 11:41:45;;;;;;;;;;;;;;;47.72;16.59;100602.47;4838760;29;6815;-68
2023/07/09 11:44:11;;;;;;;;;;;;;;;47.72;16.47;100607.91;4792702;29;6973;-68
2023/07/09 11:46:47;;;;;;;;;;;;;;;47.69;16.54;100603.59;4839905;29;6956;-68
2023/07/09 11:49:12;;;;;;;;;;;;;;;47.68;16.44;100610.06;4851730;29;7286;-68
2023/07/09 11:51:49;;;;;;;;;;;;;;;47.67;16.67;100605.66;4850381;29;7061;-68
2023/07/09 11:54:15;;;;;;;;;;;;;;;47.58;16.86;100599.34;4846035;29;6900;-68
2023/07/09 11:56:41;;;;;;;;;;;;;;;47.53;16.69;100604.44;4822855;29;7040;-69
2023/07/09 11:59:11;;;;;;;;;;;;;;;47.38;17.09;100607.75;4840263;29;6781;-68
2023/07/09 12:01:45;;;;;;;;;;;;;;;47.22;17.23;100608.50;4840861;29;6988;-68
2023/07/09 12:04:17;;;;;;;;;;;;;;;46.96;17.17;100603.16;4820908;29;6839;-69
2023/07/09 12:06:44;;;;;;;;;;;;;;;46.53;17.37;100594.88;4831921;29;6986;-68
2023/07/09 12:09:18;;;;;;;;;;;;;;;45.98;17.79;100588.63;4858488;29;7115;-68
2023/07/09 12:11:49;;;;;;;;;;;;;;;45.35;18.25;100578.44;4831336;29;6875;-69
2023/07/09 12:14:17;;;;;;;;;;;;;;;44.74;18.25;100580.66;4851878;29;6989;-68
2023/07/09 12:16:51;;;;;;;;;;;;;;;44.10;18.82;100572.16;4839115;29;6957;-69
2023/07/09 12:19:22;;;;;;;;;;;;;;;43.52;19.34;100566.53;4841032;29;6801;-69
2023/07/09 12:21:50;;;;;;;;;;;;;;;43.01;19.97;100574.56;4835942;29;6951;-69
2023/07/09 12:24:28;;;;;;;;;;;;;;;42.52;20.56;100578.78;4844191;29;6832;-68
2023/07/09 12:26:59;;;;;;;;;;;;;;;41.98;20.58;100578.72;4840219;29;6816;-69
2023/07/09 12:29:30;;;;;;;;;;;;;;;41.48;21.06;100563.88;4823890;29;7034;-68
2023/07/09 12:31:57;;;;;;;;;;;;;;;41.01;21.73;100559.47;4845428;29;6895;-68
2023/07/09 12:34:24;;;;;;;;;;;;;;;40.55;22.15;100551.31;4838319;29;6785;-68
2023/07/09 12:36:53;;;;;;;;;;;;;;;40.12;22.46;100557.25;4836804;29;6940;-68
2023/07/09 12:39:25;;;;;;;;;;;;;;;39.62;23.54;100576.94;4836531;29;7578;-69
2023/07/09 12:41:55;;;;;;;;;;;;;;;38.88;24.93;100607.91;4854409;29;6992;-68
2023/07/09 12:44:23;;;;;;;;;;;;;;;37.79;27.49;100636.41;4838738;29;7336;-68
2023/07/09 12:46:50;;;;;;;;;;;;;;;36.39;30.12;100655.31;4854464;29;6785;-69
2023/07/09 12:49:28;;;;;;;;;;;;;;;34.33;32.36;100751.91;4840001;29;7147;-71
2023/07/09 12:51:55;;;;;;;;;;;;;;;32.16;33.09;100770.44;4842769;29;6891;-71
2023/07/09 12:54:21;;;;;;;;;;;;;;;30.17;36.67;100721.22;4828000;29;7148;-71
2023/07/09 12:56:51;;;;;;;;;;;;;;;28.63;38.08;100747.00;4842643;29;7150;-70
2023/07/09 12:59:23;;;;;;;;;;;;;;;27.52;40.22;100768.38;4843904;29;6812;-70
2023/07/09 13:02:11;;;;;;;;;;;;;;;26.71;41.86;100754.66;4849816;29;6967;-71